Time;durP1;ratioP1;P1;durP2;ratioP2;P2;SDS_P1;SDS_P2;PMS_P1;PMS_P2;Temp;Humidity;BMP_temperature;BMP_pressure;BME280_temperature;BME280_humidity;BME280_pressure;Samples;Min_cycle;Max_cycle;Signal;HPM_P1;HPM_P2
2021/01/29 00:00:13;;;;;;;37.65;19.77;;;;;;;-8.10;66.75;92731.00;5030238;28;20026;-62
2021/01/29 00:02:39;;;;;;;57.63;20.77;;;;;;;-8.04;67.30;92725.81;5031416;28;20422;-63
2021/01/29 00:05:05;;;;;;;44.75;21.17;;;;;;;-7.91;65.76;92727.16;5031357;28;20025;-68
2021/01/29 00:07:31;;;;;;;38.90;19.65;;;;;;;-8.23;65.82;92727.78;5031141;28;20029;-64
2021/01/29 00:09:57;;;;;;;38.20;17.58;;;;;;;-8.34;65.20;92710.69;5031145;28;20032;-64
2021/01/29 00:12:23;;;;;;;27.90;13.95;;;;;;;-8.61;66.90;92724.81;5030996;28;20029;-65
2021/01/29 00:14:49;;;;;;;40.80;16.23;;;;;;;-8.61;67.15;92725.56;5030965;28;20078;-63
2021/01/29 00:17:14;;;;;;;27.00;13.60;;;;;;;-8.85;66.74;92697.13;5031035;28;20029;-62
2021/01/29 00:19:39;;;;;;;35.05;16.50;;;;;;;-8.36;66.59;92719.19;5030916;28;20502;-62
2021/01/29 00:22:05;;;;;;;41.00;17.92;;;;;;;-8.30;68.14;92727.34;5030816;28;20056;-62
2021/01/29 00:24:30;;;;;;;33.42;16.83;;;;;;;-8.20;67.43;92728.78;5031087;28;20026;-62
2021/01/29 00:26:56;;;;;;;33.42;14.77;;;;;;;-8.45;68.19;92697.75;5030853;28;20028;-62
2021/01/29 00:29:22;;;;;;;40.85;17.65;;;;;;;-8.05;66.82;92725.06;5030714;28;20663;-62
2021/01/29 00:31:47;;;;;;;36.55;17.05;;;;;;;-8.02;67.15;92726.84;5030734;28;20086;-62
2021/01/29 00:34:13;;;;;;;32.25;13.65;;;;;;;-8.15;66.89;92706.78;5030697;28;20021;-62
2021/01/29 00:36:38;;;;;;;37.80;16.48;;;;;;;-7.93;67.14;92724.19;5030938;28;20026;-62
2021/01/29 00:39:04;;;;;;;32.53;15.63;;;;;;;-7.80;67.24;92727.44;5030077;28;20033;-62
2021/01/29 00:41:29;;;;;;;34.90;15.38;;;;;;;-7.87;65.78;92708.22;5029308;28;20104;-62
2021/01/29 00:43:55;;;;;;;46.35;16.67;;;;;;;-7.79;65.35;92720.09;5030649;28;20478;-62
2021/01/29 00:46:20;;;;;;;37.85;15.35;;;;;;;-7.75;66.01;92726.81;5030586;28;20466;-62
2021/01/29 00:48:47;;;;;;;30.02;13.35;;;;;;;-7.94;66.46;92717.31;5029338;28;20100;-61
2021/01/29 00:51:13;;;;;;;39.88;15.70;;;;;;;-7.87;67.21;92717.00;5030480;28;20021;-62
2021/01/29 00:53:39;;;;;;;36.90;17.17;;;;;;;-8.01;67.27;92712.25;5030452;28;20030;-62
2021/01/29 00:56:05;;;;;;;33.05;15.05;;;;;;;-8.14;66.85;92729.69;5030367;28;20033;-62
2021/01/29 00:58:30;;;;;;;34.97;15.00;;;;;;;-8.44;67.07;92728.69;5030396;28;20034;-52
2021/01/29 01:00:56;;;;;;;39.50;14.63;;;;;;;-8.32;66.96;92727.81;5030269;28;20022;-70
2021/01/29 01:03:21;;;;;;;36.75;16.25;;;;;;;-8.54;67.50;92687.06;5030291;28;20026;-68
2021/01/29 01:05:46;;;;;;;44.67;15.65;;;;;;;-8.09;66.98;92724.47;5030167;28;20089;-69
2021/01/29 01:08:12;;;;;;;36.22;16.40;;;;;;;-8.05;67.46;92722.38;5030031;28;20029;-69
2021/01/29 01:10:38;;;;;;;33.00;15.13;;;;;;;-7.88;66.62;92718.19;5030146;28;20053;-69
2021/01/29 01:13:03;;;;;;;38.15;16.10;;;;;;;-7.98;66.45;92716.72;5030016;28;20029;-62
2021/01/29 01:15:29;;;;;;;44.80;17.77;;;;;;;-7.78;66.25;92725.03;5030059;28;20025;-63
2021/01/29 01:17:58;;;;;;;63.25;22.00;;;;;;;-7.72;65.33;92720.56;5029949;28;20104;-61
2021/01/29 01:20:26;;;;;;;65.28;25.27;;;;;;;-7.72;65.89;92723.22;5030007;28;20565;-60
2021/01/29 01:22:52;;;;;;;54.42;21.58;;;;;;;-7.68;65.95;92707.00;5029967;28;20558;-62
2021/01/29 01:25:17;;;;;;;30.52;12.80;;;;;;;-7.89;66.62;92708.69;5029825;28;20025;-63
2021/01/29 01:27:43;;;;;;;29.77;14.02;;;;;;;-7.92;67.46;92690.06;5030058;28;20413;-64
2021/01/29 01:30:16;;;;;;;24.65;11.32;;;;;;;-7.57;67.68;92717.97;5029861;28;20150;-64
2021/01/29 01:32:41;;;;;;;21.58;9.30;;;;;;;-7.41;66.98;92704.25;5029731;28;20022;-64
2021/01/29 01:35:08;;;;;;;18.80;9.25;;;;;;;-7.33;67.09;92701.97;5029902;28;20035;-64
2021/01/29 01:37:33;;;;;;;29.05;11.45;;;;;;;-7.28;67.74;92712.81;5029814;28;20029;-65
2021/01/29 01:39:59;;;;;;;22.40;11.43;;;;;;;-7.19;67.18;92718.13;5029471;28;20048;-64
2021/01/29 01:42:24;;;;;;;21.27;10.07;;;;;;;-7.23;68.68;92719.47;5029687;28;20100;-64
2021/01/29 01:44:50;;;;;;;30.17;12.65;;;;;;;-7.06;68.83;92724.03;5029647;28;20043;-64
2021/01/29 01:47:18;;;;;;;38.53;16.85;;;;;;;-7.01;66.42;92718.06;5029613;28;20025;-64
2021/01/29 01:49:44;;;;;;;55.05;21.48;;;;;;;-7.14;67.79;92712.16;5029490;28;20472;-64
2021/01/29 01:52:16;;;;;;;51.72;21.58;;;;;;;-6.98;67.13;92724.47;5028348;28;20063;-65
2021/01/29 01:55:31;;;;;;;59.53;20.88;;;;;;;-6.96;67.47;92724.75;5028309;28;20021;-67
2021/01/29 01:57:57;;;;;;;47.00;18.02;;;;;;;-6.84;67.47;92715.00;5027306;28;20034;-67
2021/01/29 02:00:26;;;;;;;43.85;17.00;;;;;;;-6.99;66.82;92701.50;5029042;28;20033;-67
2021/01/29 02:02:59;;;;;;;46.30;15.80;;;;;;;-7.39;67.51;92674.28;5029275;28;20022;-65
2021/01/29 02:05:27;;;;;;;32.40;14.23;;;;;;;-6.96;67.69;92720.13;5028190;28;20509;-65
2021/01/29 02:07:55;;;;;;;26.38;11.65;;;;;;;-6.78;67.20;92710.50;5028198;28;20085;-64
2021/01/29 02:10:26;;;;;;;24.30;11.55;;;;;;;-6.71;67.14;92697.47;5028053;28;20030;-67
2021/01/29 02:12:52;;;;;;;18.95;8.20;;;;;;;-6.71;67.25;92700.13;5029107;28;20032;-60
2021/01/29 02:15:19;;;;;;;19.25;8.18;;;;;;;-6.68;67.57;92677.75;5029202;28;20022;-65
2021/01/29 02:18:12;;;;;;;20.33;9.23;;;;;;;-6.52;67.04;92698.81;5029130;28;20490;-66
2021/01/29 02:20:56;;;;;;;21.83;9.35;;;;;;;-6.46;67.80;92697.00;5029283;28;20108;-68
2021/01/29 02:23:30;;;;;;;31.70;12.13;;;;;;;-6.41;68.00;92690.97;5029154;28;20408;-69
2021/01/29 02:26:24;;;;;;;31.70;12.45;;;;;;;-6.24;68.67;92683.97;5028981;28;20048;-69
2021/01/29 02:29:09;;;;;;;48.25;17.08;;;;;;;-6.12;67.55;92689.56;5029149;28;20021;-68
2021/01/29 02:32:02;;;;;;;43.28;20.25;;;;;;;-6.06;67.51;92685.06;4998113;28;20039;-67
2021/01/29 02:34:33;;;;;;;53.53;19.98;;;;;;;-5.93;66.54;92678.19;5028866;28;20033;-65
2021/01/29 02:37:04;;;;;;;84.10;30.90;;;;;;;-6.03;66.85;92668.75;5029067;28;20029;-67
2021/01/29 02:39:38;;;;;;;88.75;32.50;;;;;;;-5.97;68.09;92674.94;5028844;28;20132;-65
2021/01/29 02:42:08;;;;;;;50.65;19.13;;;;;;;-5.89;68.85;92672.66;5027671;28;20191;-65
2021/01/29 02:44:51;;;;;;;41.53;18.75;;;;;;;-5.75;66.95;92655.75;5028753;28;20029;-64
2021/01/29 02:47:24;;;;;;;39.78;17.58;;;;;;;-5.76;67.18;92660.38;5028813;28;20032;-64
2021/01/29 02:50:04;;;;;;;32.30;15.52;;;;;;;-5.90;68.05;92658.47;5027678;28;20026;-64
2021/01/29 02:52:41;;;;;;;48.78;17.77;;;;;;;-6.10;69.01;92652.22;5027442;28;20033;-64
2021/01/29 02:55:35;;;;;;;36.97;15.98;;;;;;;-6.01;69.18;92660.97;5028722;28;20097;-64
2021/01/29 02:58:36;;;;;;;38.03;15.85;;;;;;;-6.42;69.49;92648.47;5025500;28;20037;-60
2021/01/29 03:01:08;;;;;;;35.22;14.88;;;;;;;-6.28;70.36;92653.88;4995244;28;20037;-60
2021/01/29 03:03:58;;;;;;;27.98;11.93;;;;;;;-6.15;71.17;92658.25;5027386;28;20033;-60
2021/01/29 03:06:29;;;;;;;36.20;14.30;;;;;;;-6.02;70.72;92662.16;5017401;28;20431;-64
2021/01/29 03:09:11;;;;;;;31.63;13.25;;;;;;;-5.90;70.97;92644.28;5027325;28;20026;-65
2021/01/29 03:11:41;;;;;;;30.40;11.70;;;;;;;-5.62;70.06;92645.44;5028079;28;20032;-64
2021/01/29 03:14:16;;;;;;;25.85;12.32;;;;;;;-5.59;68.45;92628.38;5030887;28;20413;-64
2021/01/29 03:17:06;;;;;;;23.33;12.65;;;;;;;-5.42;68.72;92624.75;5031964;28;20061;-62
2021/01/29 03:19:41;;;;;;;31.05;12.90;;;;;;;-5.52;69.04;92623.34;5035140;28;20048;-62
2021/01/29 03:22:17;;;;;;;30.63;14.65;;;;;;;-5.45;68.69;92631.06;5032073;28;20021;-62
2021/01/29 03:24:45;;;;;;;36.78;15.80;;;;;;;-5.36;70.24;92614.06;5030756;28;20025;-61
2021/01/29 03:27:15;;;;;;;28.05;14.77;;;;;;;-5.50;67.87;92609.47;5030514;28;20021;-59
2021/01/29 03:29:45;;;;;;;38.45;18.10;;;;;;;-5.50;68.67;92630.97;5030658;28;20428;-59
2021/01/29 03:32:13;;;;;;;41.17;18.13;;;;;;;-5.64;68.73;92619.03;5031690;28;20078;-59
2021/01/29 03:35:07;;;;;;;36.20;17.27;;;;;;;-5.50;69.08;92625.59;5030543;28;20124;-62
2021/01/29 03:37:56;;;;;;;44.53;16.20;;;;;;;-5.43;69.86;92625.19;5041288;28;20043;-60
2021/01/29 03:40:22;;;;;;;35.65;17.90;;;;;;;-5.37;70.16;92617.94;5031529;28;20438;-60
2021/01/29 03:43:04;;;;;;;36.17;14.32;;;;;;;-5.52;70.95;92611.84;5030380;28;20021;-59
2021/01/29 03:45:29;;;;;;;37.00;15.70;;;;;;;-5.39;70.61;92607.66;5030425;28;20084;-57
2021/01/29 03:47:55;;;;;;;36.40;16.45;;;;;;;-5.42;70.74;92602.50;5031617;28;20057;-60
2021/01/29 03:50:27;;;;;;;45.30;20.50;;;;;;;-5.45;70.30;92603.41;5031349;28;20375;-59
2021/01/29 03:53:18;;;;;;;41.70;19.30;;;;;;;-5.42;71.42;92603.22;5030112;28;20029;-59
2021/01/29 03:55:43;;;;;;;42.17;19.25;;;;;;;-5.29;70.98;92607.56;5002856;28;20069;-61
2021/01/29 03:58:15;;;;;;;43.75;19.80;;;;;;;-5.11;70.99;92612.69;5031463;28;20076;-61
2021/01/29 04:01:17;;;;;;;39.03;17.30;;;;;;;-5.17;70.12;92603.78;5031394;28;20082;-61
2021/01/29 04:04:01;;;;;;;34.38;16.58;;;;;;;-5.31;69.86;92597.25;5031101;28;20036;-70
2021/01/29 04:06:28;;;;;;;34.15;16.45;;;;;;;-5.40;71.25;92608.88;5031338;28;20509;-69
2021/01/29 04:09:06;;;;;;;28.08;14.80;;;;;;;-5.20;71.37;92608.19;5029984;28;20494;-66
2021/01/29 04:11:39;;;;;;;29.75;14.45;;;;;;;-5.08;72.00;92614.44;5029977;28;20022;-65
2021/01/29 04:14:10;;;;;;;25.60;13.00;;;;;;;-5.30;71.38;92596.03;5030841;28;20045;-65
2021/01/29 04:16:38;;;;;;;33.30;13.63;;;;;;;-4.94;70.83;92627.88;5029830;28;20425;-66
2021/01/29 04:19:08;;;;;;;22.88;11.70;;;;;;;-4.94;68.81;92592.88;5030774;28;20503;-66
2021/01/29 04:21:39;;;;;;;20.67;11.20;;;;;;;-4.66;68.92;92630.91;5029891;28;20033;-64
2021/01/29 04:24:10;;;;;;;26.13;12.98;;;;;;;-4.68;68.15;92633.31;5029727;28;20026;-65
2021/01/29 04:26:40;;;;;;;23.33;11.30;;;;;;;-5.16;70.16;92599.91;5029743;28;20033;-65
2021/01/29 04:29:11;;;;;;;22.30;12.07;;;;;;;-4.80;70.43;92605.50;5029774;28;20025;-64
2021/01/29 04:31:38;;;;;;;26.38;11.63;;;;;;;-4.68;68.67;92590.25;5029667;28;20025;-63
2021/01/29 04:34:19;;;;;;;18.90;10.00;;;;;;;-4.65;69.05;92610.81;5029751;28;20086;-63
2021/01/29 04:36:47;;;;;;;23.90;12.80;;;;;;;-4.68;69.95;92609.81;5030804;28;20029;-64
2021/01/29 04:39:16;;;;;;;26.98;12.45;;;;;;;-4.39;68.52;92610.88;5029532;28;20045;-67
2021/01/29 04:42:11;;;;;;;23.00;12.65;;;;;;;-4.41;69.50;92603.25;5030764;28;20060;-67
2021/01/29 04:44:43;;;;;;;25.52;12.80;;;;;;;-4.34;70.04;92602.84;5027537;28;20048;-66
2021/01/29 04:47:40;;;;;;;31.02;15.02;;;;;;;-4.34;69.70;92612.88;5030731;28;20026;-65
2021/01/29 04:50:15;;;;;;;37.03;16.45;;;;;;;-4.67;71.19;92603.22;4996043;28;20121;-66
2021/01/29 04:53:14;;;;;;;21.30;11.52;;;;;;;-4.59;71.28;92605.50;5030533;28;20397;-65
2021/01/29 04:55:39;;;;;;;;;;;;;;;-4.51;70.16;92601.19;5031025;28;20037;-66
2021/01/29 04:58:07;;;;;;;38.17;17.50;;;;;;;-4.64;71.69;92596.16;5030511;28;19910;-66
2021/01/29 05:00:58;;;;;;;39.42;17.80;;;;;;;-4.41;71.12;92591.75;5030504;28;20028;-61
2021/01/29 05:03:41;;;;;;;32.05;17.13;;;;;;;-4.32;71.20;92594.28;5029319;28;20078;-63
2021/01/29 05:06:51;;;;;;;41.33;19.48;;;;;;;-4.29;71.50;92599.50;5030409;28;20033;-63
2021/01/29 05:09:31;;;;;;;42.13;20.88;;;;;;;-4.23;70.88;92591.44;5014886;28;20044;-63
2021/01/29 05:12:18;;;;;;;39.72;19.27;;;;;;;-4.38;70.84;92596.94;5030280;28;20029;-60
2021/01/29 05:15:14;;;;;;;27.67;13.90;;;;;;;-4.28;70.29;92614.44;5028823;28;20041;-60
2021/01/29 05:18:10;;;;;;;24.38;13.63;;;;;;;-4.28;71.04;92617.13;5030327;28;20112;-66
2021/01/29 05:20:45;;;;;;;24.45;11.90;;;;;;;-4.20;69.89;92625.53;5030036;28;20025;-67
2021/01/29 05:23:36;;;;;;;32.83;14.65;;;;;;;-4.12;70.22;92618.50;5028893;28;20029;-67
2021/01/29 05:26:04;;;;;;;30.38;13.57;;;;;;;-4.10;69.89;92621.47;5029940;28;20101;-61
2021/01/29 05:28:50;;;;;;;41.33;17.90;;;;;;;-4.35;69.82;92625.63;5030011;28;20487;-62
2021/01/29 05:31:16;;;;;;;29.38;14.82;;;;;;;-4.29;70.05;92636.47;5028730;28;20029;-59
2021/01/29 05:34:06;;;;;;;34.80;18.30;;;;;;;-4.25;70.49;92632.34;5029794;28;20033;-59
2021/01/29 05:37:03;;;;;;;32.80;16.98;;;;;;;-4.28;70.97;92637.94;5029967;28;20152;-64
2021/01/29 05:39:32;;;;;;;35.85;16.45;;;;;;;-4.12;71.26;92638.13;4996508;28;20061;-68
2021/01/29 05:42:12;;;;;;;34.17;16.73;;;;;;;-4.03;71.56;92639.94;5029652;28;20060;-68
2021/01/29 05:45:19;;;;;;;35.90;17.77;;;;;;;-4.04;71.58;92649.22;5030480;28;20029;-69
2021/01/29 05:48:06;;;;;;;39.25;19.77;;;;;;;-3.95;71.24;92649.81;5073503;28;20028;-69
2021/01/29 05:50:40;;;;;;;48.85;21.77;;;;;;;-3.82;70.67;92652.13;5032728;28;20033;-68
2021/01/29 05:53:31;;;;;;;94.00;35.35;;;;;;;-3.84;71.08;92657.28;5029087;28;20034;-68
2021/01/29 05:56:08;;;;;;;119.20;40.40;;;;;;;-3.87;71.40;92666.28;5029095;28;20029;-68
2021/01/29 05:58:42;;;;;;;94.70;41.92;;;;;;;-3.78;71.81;92663.44;5028046;28;20093;-63
2021/01/29 06:01:36;;;;;;;65.38;28.40;;;;;;;-3.69;71.68;92665.25;5028500;28;20037;-63
2021/01/29 06:04:29;;;;;;;45.60;22.92;;;;;;;-3.47;70.04;92665.44;5037654;28;20032;-63
2021/01/29 06:07:05;;;;;;;48.42;23.83;;;;;;;-3.43;70.44;92653.22;5045795;28;20448;-66
2021/01/29 06:09:52;;;;;;;37.13;19.65;;;;;;;-3.35;70.49;92659.66;5039799;28;20028;-65
2021/01/29 06:12:35;;;;;;;59.70;27.80;;;;;;;-3.31;70.30;92662.88;5046793;28;20029;-65
2021/01/29 06:15:14;;;;;;;62.05;26.95;;;;;;;-3.31;70.31;92660.19;5037121;28;20029;-65
2021/01/29 06:17:42;;;;;;;68.15;31.25;;;;;;;-3.39;70.21;92653.00;5025555;28;20065;-65
2021/01/29 06:20:14;;;;;;;100.38;41.55;;;;;;;-3.38;70.61;92660.59;5032869;28;20508;-65
2021/01/29 06:23:17;;;;;;;110.03;48.03;;;;;;;-3.34;70.97;92644.22;5043139;28;20029;-66
2021/01/29 06:26:00;;;;;;;73.97;35.90;;;;;;;-3.23;70.76;92631.50;5026729;28;20570;-66
2021/01/29 06:28:37;;;;;;;77.50;32.30;;;;;;;-3.10;71.23;92656.16;5025331;28;20029;-66
2021/01/29 06:31:21;;;;;;;88.82;40.90;;;;;;;-3.22;70.98;92651.91;5026354;28;20504;-66
2021/01/29 06:33:56;;;;;;;54.50;29.27;;;;;;;-3.14;69.67;92636.75;5026189;28;20036;-65
2021/01/29 06:36:21;;;;;;;57.50;28.77;;;;;;;-3.16;71.20;92654.63;5030541;28;20462;-65
2021/01/29 06:39:01;;;;;;;68.72;32.13;;;;;;;-3.27;71.56;92657.28;5032565;28;20033;-65
2021/01/29 06:41:48;;;;;;;132.65;51.47;;;;;;;-3.04;70.67;92650.81;5026152;28;20033;-65
2021/01/29 06:44:24;;;;;;;101.43;40.33;;;;;;;-3.22;69.89;92637.66;5026265;28;20085;-64
2021/01/29 06:47:20;;;;;;;142.10;56.13;;;;;;;-2.95;71.18;92666.09;5025535;28;20413;-64
2021/01/29 06:50:04;;;;;;;111.32;48.72;;;;;;;-2.82;70.39;92664.47;5026325;28;20051;-64
2021/01/29 06:52:41;;;;;;;78.15;36.35;;;;;;;-2.79;70.74;92685.09;5025944;28;20034;-64
2021/01/29 06:55:24;;;;;;;105.07;46.25;;;;;;;-3.12;71.44;92668.66;5026109;28;20026;-66
2021/01/29 06:58:05;;;;;;;85.65;40.95;;;;;;;-3.08;72.40;92669.94;5026300;28;20053;-65
2021/01/29 07:00:55;;;;;;;77.35;35.22;;;;;;;-3.02;71.75;92655.72;5033806;28;20097;-64
2021/01/29 07:03:45;;;;;;;62.05;32.60;;;;;;;-2.71;71.48;92671.88;5036063;28;20528;-65
2021/01/29 07:06:38;;;;;;;72.25;33.47;;;;;;;-2.49;70.93;92678.13;5046869;28;20036;-65
2021/01/29 07:09:10;;;;;;;56.67;28.92;;;;;;;-2.35;70.41;92668.38;5047064;28;20125;-65
2021/01/29 07:11:54;;;;;;;51.45;25.00;;;;;;;-2.36;69.31;92664.22;5038802;28;20178;-65
2021/01/29 07:14:49;;;;;;;45.15;23.65;;;;;;;-2.16;69.58;92682.19;5027092;28;20030;-67
2021/01/29 07:17:22;;;;;;;33.20;19.38;;;;;;;-1.95;69.25;92678.13;5026782;28;20021;-67
2021/01/29 07:19:57;;;;;;;36.13;17.27;;;;;;;-2.16;69.10;92669.44;5026053;28;20040;-67
2021/01/29 07:22:51;;;;;;;26.52;12.38;;;;;;;-2.15;68.89;92687.16;5027377;28;20086;-67
2021/01/29 07:25:25;;;;;;;23.90;13.65;;;;;;;-2.17;69.06;92672.63;5025835;28;20025;-68
2021/01/29 07:27:58;;;;;;;22.88;11.38;;;;;;;-2.24;69.29;92665.72;5026654;28;20086;-68
2021/01/29 07:30:36;;;;;;;20.02;11.60;;;;;;;-1.86;69.15;92678.63;5027009;28;20561;-68
2021/01/29 07:33:26;;;;;;;16.25;8.80;;;;;;;-1.63;68.40;92674.00;5026877;28;20477;-68
2021/01/29 07:36:07;;;;;;;21.67;9.75;;;;;;;-1.47;67.60;92678.69;5025519;28;20549;-66
2021/01/29 07:39:04;;;;;;;19.90;11.30;;;;;;;-1.61;68.67;92668.84;5032270;28;20032;-67
2021/01/29 07:41:50;;;;;;;22.50;11.93;;;;;;;-1.63;68.94;92666.66;5046599;28;20291;-67
2021/01/29 07:44:37;;;;;;;16.17;9.27;;;;;;;-1.58;68.73;92652.34;5046500;28;20021;-67
2021/01/29 07:47:11;;;;;;;18.05;8.90;;;;;;;-1.30;68.46;92659.78;5046397;28;20120;-68
2021/01/29 07:50:03;;;;;;;21.65;11.25;;;;;;;-1.00;67.81;92674.31;5046779;28;20025;-67
2021/01/29 07:52:32;;;;;;;26.17;13.60;;;;;;;-0.64;67.14;92670.56;5045258;28;20068;-68
2021/01/29 07:55:13;;;;;;;22.88;12.77;;;;;;;-0.31;66.22;92670.50;5046788;28;20027;-67
2021/01/29 07:58:05;;;;;;;14.73;7.43;;;;;;;-0.28;64.23;92657.94;5047324;28;20029;-67
2021/01/29 08:00:44;;;;;;;14.93;9.65;;;;;;;-0.27;64.50;92667.53;5049893;28;20023;-68
2021/01/29 08:03:48;;;;;;;16.25;9.55;;;;;;;-0.58;63.59;92646.91;5048348;28;20028;-68
2021/01/29 08:06:15;;;;;;;15.10;8.23;;;;;;;-0.47;64.55;92676.69;4964461;28;20167;-67
2021/01/29 08:08:59;;;;;;;10.55;7.15;;;;;;;-0.39;63.16;92666.81;5032938;28;20022;-66
2021/01/29 08:11:25;;;;;;;10.85;6.88;;;;;;;-0.28;63.88;92676.91;5029922;28;20029;-66
2021/01/29 08:14:00;;;;;;;16.73;9.43;;;;;;;-0.27;64.71;92667.53;5029760;28;20170;-67
2021/01/29 08:16:28;;;;;;;20.33;9.23;;;;;;;-0.12;65.35;92676.09;5029564;28;20032;-69
2021/01/29 08:19:13;;;;;;;16.65;10.05;;;;;;;-0.12;64.10;92674.13;5029827;28;20025;-69
2021/01/29 08:22:00;;;;;;;19.92;12.13;;;;;;;0.18;64.21;92673.50;5028629;28;20028;-66
2021/01/29 08:24:50;;;;;;;16.67;10.48;;;;;;;0.20;63.52;92674.47;5029649;28;20051;-64
2021/01/29 08:27:41;;;;;;;18.35;11.00;;;;;;;0.12;64.10;92697.22;5028730;28;20061;-65
2021/01/29 08:30:22;;;;;;;18.90;10.65;;;;;;;0.24;62.99;92691.25;5028264;28;20398;-64
2021/01/29 08:32:55;;;;;;;17.70;8.52;;;;;;;0.19;63.35;92692.03;5028303;28;20744;-65
2021/01/29 08:35:33;;;;;;;17.48;9.45;;;;;;;0.37;63.84;92680.56;5044641;28;20049;-65
2021/01/29 08:38:16;;;;;;;26.52;12.23;;;;;;;0.60;63.55;92692.06;5030296;28;20044;-65
2021/01/29 08:40:55;;;;;;;22.92;10.77;;;;;;;0.66;62.99;92693.50;5047703;28;20465;-65
2021/01/29 08:43:25;;;;;;;26.38;10.35;;;;;;;0.81;62.75;92693.16;5048214;28;20029;-66
2021/01/29 08:46:11;;;;;;;23.98;11.75;;;;;;;0.94;63.06;92701.47;5047901;28;20033;-66
2021/01/29 08:48:51;;;;;;;19.15;9.05;;;;;;;1.05;63.98;92693.22;5049013;28;20036;-65
2021/01/29 08:51:26;;;;;;;9.32;5.85;;;;;;;1.28;62.90;92696.50;5048833;28;20025;-66
2021/01/29 08:54:29;;;;;;;11.95;6.78;;;;;;;0.96;61.01;92688.09;5047625;28;20037;-66
2021/01/29 08:57:16;;;;;;;14.43;8.30;;;;;;;1.21;62.02;92686.19;5048945;28;20025;-65
2021/01/29 08:59:42;;;;;;;12.07;6.95;;;;;;;1.41;61.14;92685.75;5049037;28;20021;-65
2021/01/29 09:02:54;;;;;;;11.98;7.28;;;;;;;1.70;59.99;92681.53;5044480;28;20021;-64
2021/01/29 09:05:23;;;;;;;11.80;8.07;;;;;;;2.07;60.05;92684.34;4951857;28;20031;-63
2021/01/29 09:08:01;;;;;;;19.67;10.55;;;;;;;2.46;59.59;92681.88;5021047;28;20046;-63
2021/01/29 09:10:39;;;;;;;16.67;8.75;;;;;;;2.70;57.26;92673.63;5026908;28;20033;-63
2021/01/29 09:13:06;;;;;;;11.03;6.57;;;;;;;2.48;56.98;92682.09;5028828;28;20026;-62
2021/01/29 09:15:56;;;;;;;18.92;9.40;;;;;;;2.57;57.86;92683.72;5028805;28;20022;-63
2021/01/29 09:18:41;;;;;;;17.90;10.93;;;;;;;2.79;57.30;92676.00;5028936;28;20108;-62
2021/01/29 09:21:13;;;;;;;15.55;8.68;;;;;;;2.82;56.71;92679.66;5031279;28;20029;-62
2021/01/29 09:24:12;;;;;;;15.57;8.60;;;;;;;3.16;56.52;92679.91;5057154;28;20053;-62
2021/01/29 09:26:53;;;;;;;13.15;7.70;;;;;;;3.25;56.95;92682.97;5027478;28;20021;-62
2021/01/29 09:29:25;;;;;;;12.32;7.38;;;;;;;3.34;56.91;92684.56;5028484;28;20059;-62
2021/01/29 09:32:06;;;;;;;11.55;6.63;;;;;;;3.42;56.07;92669.06;5027422;28;20037;-62
2021/01/29 09:34:42;;;;;;;9.27;5.38;;;;;;;3.12;57.29;92672.00;5027303;28;20029;-62
2021/01/29 09:37:19;;;;;;;9.18;6.15;;;;;;;3.12;57.03;92660.38;5027446;28;20033;-62
2021/01/29 09:39:54;;;;;;;14.90;8.35;;;;;;;2.94;57.35;92672.81;5043459;28;20088;-62
2021/01/29 09:42:46;;;;;;;17.85;9.23;;;;;;;3.23;57.48;92677.28;5048325;28;20021;-63
2021/01/29 09:45:20;;;;;;;15.85;8.40;;;;;;;3.50;57.16;92675.38;5047990;28;20029;-62
2021/01/29 09:47:48;;;;;;;15.75;8.10;;;;;;;3.66;56.34;92663.47;5048023;28;20032;-62
2021/01/29 09:50:23;;;;;;;12.80;6.95;;;;;;;3.87;57.29;92641.72;5047087;28;20077;-62
2021/01/29 09:52:58;;;;;;;17.45;8.88;;;;;;;4.16;56.08;92651.59;5046814;28;20025;-63
2021/01/29 09:55:28;;;;;;;20.60;11.15;;;;;;;5.32;54.51;92643.56;5032073;28;20033;-63
2021/01/29 09:57:59;;;;;;;12.07;7.22;;;;;;;7.03;48.28;92640.91;5027152;28;20034;-63
2021/01/29 10:00:35;;;;;;;11.32;6.57;;;;;;;8.32;46.29;92630.69;5028267;28;20037;-63
2021/01/29 10:03:19;;;;;;;8.43;4.85;;;;;;;8.66;42.71;92632.97;5026959;28;20494;-62
2021/01/29 10:06:33;;;;;;;15.43;7.97;;;;;;;8.60;42.08;92626.97;5026929;28;20083;-63
2021/01/29 10:09:03;;;;;;;13.75;8.30;;;;;;;8.88;43.04;92624.63;5019093;28;20503;-63
2021/01/29 10:11:45;;;;;;;4.63;3.92;;;;;;;9.02;41.64;92622.34;5043281;28;20036;-63
2021/01/29 10:14:15;;;;;;;5.40;3.63;;;;;;;9.91;39.02;92616.78;5030358;28;20038;-55
2021/01/29 10:16:59;;;;;;;9.38;5.95;;;;;;;10.61;37.98;92617.03;5037043;28;20022;-57
2021/01/29 10:19:43;;;;;;;6.40;4.07;;;;;;;10.25;38.76;92614.09;5035670;28;20077;-60
2021/01/29 10:22:29;;;;;;;5.53;3.00;;;;;;;11.87;37.13;92613.69;5035276;28;20040;-58
2021/01/29 10:25:19;;;;;;;3.67;2.70;;;;;;;12.69;34.85;92613.59;5032132;28;20536;-62
2021/01/29 10:27:48;;;;;;;3.72;2.40;;;;;;;12.19;34.34;92611.31;5029657;28;20021;-63
2021/01/29 10:30:44;;;;;;;5.15;2.80;;;;;;;11.35;35.19;92608.38;5046034;28;20036;-61
2021/01/29 10:33:23;;;;;;;8.75;4.00;;;;;;;9.88;38.92;92609.63;5046183;28;20533;-50
2021/01/29 10:35:59;;;;;;;20.02;8.13;;;;;;;8.57;42.76;92606.78;5028459;28;20061;-64
2021/01/29 10:38:38;;;;;;;22.35;11.63;;;;;;;7.70;44.90;92606.56;5026218;28;20480;-64
2021/01/29 10:41:22;;;;;;;20.63;13.20;;;;;;;7.39;46.31;92610.59;5025759;28;20045;-66
2021/01/29 10:43:54;;;;;;;17.50;12.70;;;;;;;6.77;47.27;92608.28;5035912;28;20038;-60
2021/01/29 10:46:51;;;;;;;7.82;5.60;;;;;;;6.78;48.21;92609.75;5047036;28;20025;-63
2021/01/29 10:49:26;;;;;;;5.88;3.92;;;;;;;6.69;48.15;92602.06;5045538;28;20029;-59
2021/01/29 10:51:55;;;;;;;10.65;6.95;;;;;;;6.94;49.08;92611.25;5045552;28;20032;-55
2021/01/29 10:54:40;;;;;;;5.90;3.70;;;;;;;6.60;48.98;92597.09;5044844;28;20032;-59
2021/01/29 10:57:11;;;;;;;8.38;3.58;;;;;;;7.05;48.52;92588.97;5045279;28;20021;-60
2021/01/29 10:59:43;;;;;;;15.52;7.80;;;;;;;7.45;47.44;92595.38;5045247;28;20033;-60
2021/01/29 11:02:13;;;;;;;7.47;4.85;;;;;;;8.59;45.45;92582.19;5035016;28;20417;-63
2021/01/29 11:04:41;;;;;;;8.65;6.32;;;;;;;10.20;42.83;92576.44;5035594;28;20033;-65
2021/01/29 11:07:19;;;;;;;12.60;6.25;;;;;;;11.95;37.13;92550.72;5034961;28;20025;-66
2021/01/29 11:09:53;;;;;;;19.92;9.18;;;;;;;12.87;35.64;92576.84;5043509;28;20025;-63
2021/01/29 11:12:44;;;;;;;6.07;3.97;;;;;;;12.95;34.38;92569.09;5043744;28;20029;-61
2021/01/29 11:15:19;;;;;;;5.10;3.53;;;;;;;12.81;34.90;92551.47;5045189;28;20036;-60
2021/01/29 11:17:50;;;;;;;7.13;4.25;;;;;;;12.96;34.81;92544.88;5046234;28;20056;-60
2021/01/29 11:20:21;;;;;;;8.38;4.60;;;;;;;13.56;34.13;92535.25;5045159;28;20033;-59
2021/01/29 11:22:55;;;;;;;10.70;6.25;;;;;;;14.86;32.76;92533.38;5044580;28;20113;-59
2021/01/29 11:25:24;;;;;;;6.40;4.40;;;;;;;15.58;31.29;92540.72;5026583;28;20068;-60
2021/01/29 11:27:54;;;;;;;5.00;3.27;;;;;;;16.37;29.16;92529.41;5031962;28;20032;-49
2021/01/29 11:30:29;;;;;;;6.05;3.08;;;;;;;16.40;29.27;92524.69;5041731;28;20814;-52
2021/01/29 11:33:06;;;;;;;22.40;9.38;;;;;;;17.54;27.08;92510.19;5046726;28;20150;-50
2021/01/29 11:35:32;;;;;;;11.63;5.55;;;;;;;17.97;27.90;92519.44;5048727;28;20039;-48
2021/01/29 11:37:58;;;;;;;7.85;4.82;;;;;;;18.00;27.31;92510.53;5040898;28;20041;-57
2021/01/29 11:41:09;;;;;;;5.43;2.75;;;;;;;17.64;27.68;92511.44;5040353;28;20122;-58
2021/01/29 11:44:07;;;;;;;7.32;4.38;;;;;;;18.51;27.22;92491.50;5024285;28;20033;-51
2021/01/29 11:47:06;;;;;;;5.25;3.78;;;;;;;18.84;25.50;92499.41;5048533;28;20088;-49
2021/01/29 11:49:47;;;;;;;4.93;3.05;;;;;;;18.86;25.46;92496.69;5049798;28;20033;-57
2021/01/29 11:52:20;;;;;;;2.78;2.00;;;;;;;18.05;26.29;92498.25;5048633;28;20475;-57
2021/01/29 11:55:15;;;;;;;3.75;2.40;;;;;;;17.74;27.62;92495.22;5048705;28;20025;-53
2021/01/29 11:58:21;;;;;;;6.03;2.40;;;;;;;16.87;29.40;92494.66;5044259;28;20052;-49
2021/01/29 12:01:15;;;;;;;4.63;3.00;;;;;;;16.45;28.85;92484.59;5041010;28;20048;-51
2021/01/29 12:04:05;;;;;;;4.70;2.72;;;;;;;14.34;32.98;92484.25;5033516;28;20089;-57
2021/01/29 12:06:33;;;;;;;5.35;2.92;;;;;;;15.19;32.09;92484.78;5048476;28;20044;-47
2021/01/29 12:09:16;;;;;;;5.50;3.37;;;;;;;14.83;32.13;92479.03;5048298;28;20029;-48